createdAt,value
2018-03-25T00:00:02.422Z,14.40
2018-03-25T00:02:31.452Z,13.70
2018-03-25T00:04:59.714Z,15.13
2018-03-25T00:07:28.025Z,14.20
2018-03-25T00:09:56.284Z,12.77
2018-03-25T00:12:24.540Z,12.57
2018-03-25T00:14:52.811Z,15.00
2018-03-25T00:17:21.070Z,13.77
2018-03-25T00:19:50.095Z,15.57
2018-03-25T00:22:18.360Z,15.83
2018-03-25T00:24:46.659Z,13.88
2018-03-25T00:27:14.924Z,17.07
2018-03-25T00:29:43.181Z,14.70
2018-03-25T00:32:11.455Z,14.30
2018-03-25T00:34:39.724Z,14.43
2018-03-25T00:37:08.767Z,14.33
2018-03-25T00:39:37.024Z,11.37
2018-03-25T00:42:05.286Z,16.77
2018-03-25T00:44:33.557Z,16.77
2018-03-25T00:47:01.814Z,13.00
2018-03-25T00:49:30.879Z,14.97
2018-03-25T00:51:59.176Z,16.60
2018-03-25T00:54:28.200Z,15.00
2018-03-25T00:56:56.455Z,11.23
2018-03-25T00:59:25.555Z,13.70
2018-03-25T01:01:54.574Z,15.60
2018-03-25T01:04:22.837Z,13.03
2018-03-25T01:06:51.112Z,19.00
2018-03-25T01:09:19.367Z,12.17
2018-03-25T01:11:48.394Z,17.53
2018-03-25T01:14:16.668Z,16.80
2018-03-25T01:16:44.940Z,14.32
2018-03-25T01:19:13.205Z,13.03
2018-03-25T01:21:41.465Z,13.40
2018-03-25T01:24:10.492Z,15.70
2018-03-25T01:26:38.753Z,13.90
2018-03-25T01:29:07.005Z,12.80
2018-03-25T01:31:36.035Z,14.87
2018-03-25T01:34:04.300Z,12.70
2018-03-25T01:36:32.563Z,14.15
2018-03-25T01:39:00.843Z,12.47
2018-03-25T01:41:29.869Z,17.27
2018-03-25T01:43:58.923Z,18.37
2018-03-25T01:46:27.956Z,16.60
2018-03-25T01:48:56.203Z,15.70
2018-03-25T01:51:24.471Z,15.50
2018-03-25T01:53:52.783Z,17.07
2018-03-25T01:56:21.064Z,15.00
2018-03-25T01:58:49.375Z,18.47
2018-03-25T02:01:17.654Z,18.80
2018-03-25T02:03:45.927Z,18.73
2018-03-25T02:06:14.257Z,15.40
2018-03-25T02:08:42.521Z,23.93
2018-03-25T02:11:10.842Z,20.83
2018-03-25T02:13:39.191Z,20.57
2018-03-25T02:16:07.556Z,16.97
2018-03-25T02:18:35.907Z,17.80
2018-03-25T02:21:05.870Z,16.13
2018-03-25T02:23:34.217Z,17.10
2018-03-25T02:26:02.603Z,14.65
2018-03-25T02:28:30.979Z,22.87
2018-03-25T02:30:59.340Z,18.57
2018-03-25T02:33:27.640Z,20.03
2018-03-25T02:35:55.909Z,20.70
2018-03-25T02:38:24.201Z,19.63
2018-03-25T02:40:52.482Z,17.20
2018-03-25T02:43:20.774Z,18.57
2018-03-25T02:45:49.063Z,15.80
2018-03-25T02:48:17.337Z,16.57
2018-03-25T02:50:45.609Z,16.80
2018-03-25T02:53:13.885Z,13.37
2018-03-25T02:55:42.167Z,17.80
2018-03-25T02:58:10.440Z,17.37
2018-03-25T03:00:38.704Z,16.80
2018-03-25T03:03:06.988Z,17.60
2018-03-25T03:05:35.256Z,14.63
2018-03-25T03:08:03.524Z,17.13
2018-03-25T03:10:31.817Z,17.57
2018-03-25T03:13:00.090Z,18.13
2018-03-25T03:15:28.355Z,17.83
2018-03-25T03:17:56.639Z,19.13
2018-03-25T03:20:24.944Z,21.60
2018-03-25T03:22:53.207Z,24.67
2018-03-25T03:25:21.499Z,16.87
2018-03-25T03:27:49.775Z,16.90
2018-03-25T03:30:18.085Z,17.57
2018-03-25T03:32:46.348Z,14.03
2018-03-25T03:35:15.428Z,17.77
2018-03-25T03:37:43.712Z,18.40
2018-03-25T03:40:12.760Z,18.50
2018-03-25T03:42:41.791Z,20.17
2018-03-25T03:45:10.081Z,21.77
2018-03-25T03:47:39.136Z,15.47
2018-03-25T03:50:07.409Z,15.50
2018-03-25T03:52:35.697Z,18.00
2018-03-25T03:55:03.963Z,16.67
2018-03-25T03:57:32.237Z,17.17
2018-03-25T04:00:00.526Z,19.30
2018-03-25T04:02:28.868Z,15.03
2018-03-25T04:04:57.145Z,18.73
2018-03-25T04:07:25.424Z,19.00
2018-03-25T04:09:53.684Z,21.20
2018-03-25T04:12:21.971Z,20.60
2018-03-25T04:14:50.233Z,13.37
2018-03-25T04:17:18.516Z,19.60
2018-03-25T04:19:46.778Z,14.97
2018-03-25T04:22:15.061Z,17.27
2018-03-25T04:24:43.358Z,15.13
2018-03-25T04:27:11.619Z,17.07
2018-03-25T04:29:39.958Z,13.17
2018-03-25T04:32:08.184Z,21.90
2018-03-25T04:34:36.457Z,16.87
2018-03-25T04:37:04.767Z,15.50
2018-03-25T04:39:33.014Z,13.73
2018-03-25T04:42:01.284Z,13.13
2018-03-25T04:44:29.571Z,15.13
2018-03-25T04:46:57.832Z,13.83
2018-03-25T04:49:26.100Z,15.13
2018-03-25T04:51:54.405Z,17.43
2018-03-25T04:54:22.671Z,18.90
2018-03-25T04:56:50.952Z,18.57
2018-03-25T04:59:19.275Z,17.10
2018-03-25T05:01:47.501Z,15.10
2018-03-25T05:04:15.780Z,19.30
2018-03-25T05:06:44.075Z,19.10
2018-03-25T05:09:12.355Z,18.70
2018-03-25T05:11:40.631Z,20.07
2018-03-25T05:14:08.920Z,17.60
2018-03-25T05:16:37.204Z,15.73
2018-03-25T05:19:05.484Z,19.50
2018-03-25T05:21:33.773Z,17.67
2018-03-25T05:24:02.075Z,18.83
2018-03-25T05:26:30.369Z,17.10
2018-03-25T05:28:58.672Z,16.53
2018-03-25T05:31:28.448Z,17.90
2018-03-25T05:33:56.738Z,18.70
2018-03-25T05:36:25.012Z,17.50
2018-03-25T05:38:53.315Z,16.73
2018-03-25T05:41:21.576Z,17.00
2018-03-25T05:43:49.839Z,23.23
2018-03-25T05:46:18.122Z,15.77
2018-03-25T05:48:46.385Z,17.23
2018-03-25T05:51:14.667Z,15.23
2018-03-25T05:53:42.931Z,20.87
2018-03-25T05:56:11.200Z,17.00
2018-03-25T05:58:39.488Z,15.90
2018-03-25T06:01:07.775Z,17.27
2018-03-25T06:03:36.039Z,17.90
2018-03-25T06:06:04.320Z,20.30
2018-03-25T06:08:32.582Z,18.10
2018-03-25T06:11:00.875Z,18.20
2018-03-25T06:13:29.152Z,18.60
2018-03-25T06:15:57.435Z,14.63
2018-03-25T06:18:25.692Z,16.80
2018-03-25T06:20:53.965Z,18.47
2018-03-25T06:23:22.250Z,16.27
2018-03-25T06:25:50.500Z,15.33
2018-03-25T06:28:18.772Z,14.30
2018-03-25T06:30:47.836Z,12.80
2018-03-25T06:33:16.094Z,14.67
2018-03-25T06:35:44.367Z,15.70
2018-03-25T06:38:12.633Z,15.53
2018-03-25T06:40:40.932Z,16.07
2018-03-25T06:43:09.192Z,14.10
2018-03-25T06:45:37.455Z,16.00
2018-03-25T06:48:05.722Z,16.37
2018-03-25T06:50:33.969Z,19.37
2018-03-25T06:53:03.005Z,18.40
2018-03-25T06:55:31.288Z,19.27
2018-03-25T06:57:59.635Z,16.27
2018-03-25T07:00:27.958Z,18.13
2018-03-25T07:02:56.266Z,16.13
2018-03-25T07:05:25.366Z,15.30
2018-03-25T07:07:53.706Z,15.40
2018-03-25T07:10:22.031Z,14.67
2018-03-25T07:12:50.383Z,14.43
2018-03-25T07:15:19.480Z,17.20
2018-03-25T07:17:48.572Z,19.67
2018-03-25T07:20:17.681Z,16.03
2018-03-25T07:22:46.017Z,18.07
2018-03-25T07:25:15.138Z,19.73
2018-03-25T07:27:44.262Z,16.20
2018-03-25T07:30:12.632Z,22.87
2018-03-25T07:32:40.987Z,20.73
2018-03-25T07:35:10.138Z,16.80
2018-03-25T07:37:38.523Z,20.13
2018-03-25T07:40:06.818Z,20.20
2018-03-25T07:42:35.101Z,21.03
2018-03-25T07:45:03.365Z,18.80
2018-03-25T07:47:31.624Z,19.40
2018-03-25T07:50:00.009Z,21.77
2018-03-25T07:52:28.261Z,18.80
2018-03-25T07:54:56.536Z,18.90
2018-03-25T07:57:24.796Z,14.83
2018-03-25T07:59:53.820Z,16.70
2018-03-25T08:02:22.135Z,17.60
2018-03-25T08:04:50.468Z,15.53
2018-03-25T08:07:18.796Z,15.33
2018-03-25T08:09:47.892Z,20.00
2018-03-25T08:12:16.195Z,16.43
2018-03-25T08:14:44.550Z,19.73
2018-03-25T08:17:12.890Z,19.07
2018-03-25T08:19:42.038Z,15.93
2018-03-25T08:22:11.146Z,16.67
2018-03-25T08:24:39.492Z,20.00
2018-03-25T08:27:09.316Z,19.00
2018-03-25T08:29:38.426Z,21.20
2018-03-25T08:32:06.734Z,18.30
2018-03-25T08:34:35.020Z,27.90
2018-03-25T08:37:03.295Z,22.15
2018-03-25T08:39:31.697Z,25.07
2018-03-25T08:41:59.954Z,25.17
2018-03-25T08:44:28.201Z,19.37
2018-03-25T08:46:56.523Z,21.40
2018-03-25T08:49:24.783Z,27.10
2018-03-25T08:51:53.047Z,21.57
2018-03-25T08:54:21.318Z,24.50
2018-03-25T08:56:49.571Z,18.92
2018-03-25T08:59:18.632Z,22.47
2018-03-25T09:01:46.888Z,19.97
2018-03-25T09:04:15.143Z,18.73
2018-03-25T09:06:43.420Z,18.97
2018-03-25T09:09:11.676Z,20.00
2018-03-25T09:11:40.720Z,17.73
2018-03-25T09:14:08.979Z,20.10
2018-03-25T09:16:37.420Z,18.47
2018-03-25T09:19:06.461Z,18.93
2018-03-25T09:21:34.736Z,18.37
2018-03-25T09:24:03.084Z,20.40
2018-03-25T09:26:31.361Z,18.40
2018-03-25T09:28:59.637Z,20.97
2018-03-25T09:31:27.891Z,20.67
2018-03-25T09:33:56.936Z,23.63
2018-03-25T09:36:25.202Z,21.40
2018-03-25T09:38:53.463Z,19.70
2018-03-25T09:41:21.741Z,21.20
2018-03-25T09:43:50.024Z,23.50
2018-03-25T09:46:18.279Z,23.57
2018-03-25T09:48:46.561Z,20.30
2018-03-25T09:51:14.847Z,20.80
2018-03-25T09:53:43.118Z,18.50
2018-03-25T09:56:11.435Z,17.63
2018-03-25T09:58:39.717Z,18.47
2018-03-25T10:01:14.454Z,19.70
2018-03-25T10:03:42.724Z,20.23
2018-03-25T10:06:10.999Z,20.47
2018-03-25T10:08:39.290Z,17.50
2018-03-25T10:11:07.568Z,17.63
2018-03-25T10:13:35.837Z,20.67
2018-03-25T10:16:04.138Z,18.80
2018-03-25T10:18:33.169Z,15.97
2018-03-25T10:21:01.429Z,15.97
2018-03-25T10:23:29.707Z,16.30
2018-03-25T10:25:59.644Z,15.20
2018-03-25T10:28:27.908Z,17.10
2018-03-25T10:30:56.195Z,14.67
2018-03-25T10:33:24.508Z,16.40
2018-03-25T10:35:52.768Z,18.77
2018-03-25T10:38:21.063Z,18.03
2018-03-25T10:40:49.319Z,18.20
2018-03-25T10:43:17.604Z,14.80
2018-03-25T10:45:45.871Z,16.10
2018-03-25T10:48:14.215Z,13.40
2018-03-25T10:50:42.471Z,14.20
2018-03-25T10:53:10.739Z,15.10
2018-03-25T10:55:39.789Z,14.17
2018-03-25T10:58:08.055Z,10.30
2018-03-25T11:00:36.335Z,11.30
2018-03-25T11:03:04.631Z,12.23
2018-03-25T11:05:33.032Z,11.60
2018-03-25T11:08:02.191Z,12.83
2018-03-25T11:10:30.482Z,10.63
2018-03-25T11:12:58.744Z,12.63
2018-03-25T11:15:27.049Z,10.83
2018-03-25T11:17:56.088Z,11.80
2018-03-25T11:20:24.359Z,12.40
2018-03-25T11:22:52.628Z,10.37
2018-03-25T11:25:20.932Z,11.60
2018-03-25T11:27:49.216Z,9.77
2018-03-25T11:30:17.479Z,12.60
2018-03-25T11:32:45.748Z,11.70
2018-03-25T11:35:14.074Z,11.60
2018-03-25T11:37:42.335Z,11.03
2018-03-25T11:40:10.612Z,9.70
2018-03-25T11:42:38.974Z,10.03
2018-03-25T11:45:07.463Z,12.68
2018-03-25T11:47:35.761Z,11.47
2018-03-25T11:50:04.035Z,12.73
2018-03-25T11:52:32.290Z,12.00
2018-03-25T11:55:00.555Z,11.97
2018-03-25T11:57:28.837Z,11.27
2018-03-25T11:59:57.196Z,10.20
2018-03-25T12:02:25.467Z,12.40
2018-03-25T12:04:53.754Z,11.60
2018-03-25T12:07:22.047Z,10.53
2018-03-25T12:09:50.325Z,9.90
2018-03-25T12:12:18.601Z,9.67
2018-03-25T12:14:46.871Z,12.80
2018-03-25T12:17:15.135Z,11.30
2018-03-25T12:19:43.411Z,9.00
2018-03-25T12:22:11.688Z,10.53
2018-03-25T12:24:39.949Z,10.60
2018-03-25T12:27:08.244Z,11.90
2018-03-25T12:29:36.507Z,10.07
2018-03-25T12:32:04.769Z,9.00
2018-03-25T12:34:33.048Z,9.67
2018-03-25T12:37:01.361Z,8.70
2018-03-25T12:39:29.600Z,8.27
2018-03-25T12:41:57.888Z,11.20
2018-03-25T12:44:26.141Z,8.70
2018-03-25T12:46:54.409Z,9.17
2018-03-25T12:49:23.452Z,8.40
2018-03-25T12:51:51.709Z,8.70
2018-03-25T12:54:19.970Z,8.93
2018-03-25T12:56:48.253Z,8.60
2018-03-25T12:59:16.520Z,7.20
2018-03-25T13:01:44.784Z,9.33
2018-03-25T13:04:14.032Z,9.97
2018-03-25T13:06:42.289Z,10.20
2018-03-25T13:09:10.548Z,8.87
2018-03-25T13:11:38.829Z,9.60
2018-03-25T13:14:07.098Z,7.63
2018-03-25T13:16:35.360Z,8.70
2018-03-25T13:19:04.406Z,9.60
2018-03-25T13:21:32.668Z,9.23
2018-03-25T13:24:00.925Z,8.60
2018-03-25T13:26:29.215Z,5.93
2018-03-25T13:28:57.528Z,8.93
2018-03-25T13:31:25.737Z,8.53
2018-03-25T13:33:54.776Z,8.97
2018-03-25T13:36:23.043Z,9.87
2018-03-25T13:38:51.311Z,12.43
2018-03-25T13:41:19.589Z,11.17
2018-03-25T13:43:47.843Z,9.97
2018-03-25T13:46:16.115Z,8.47
2018-03-25T13:48:44.411Z,9.77
2018-03-25T13:51:12.668Z,8.83
2018-03-25T13:53:40.940Z,7.97
2018-03-25T13:56:09.989Z,10.77
2018-03-25T13:58:38.250Z,10.43
2018-03-25T14:01:06.533Z,9.73
2018-03-25T14:03:34.793Z,9.43
2018-03-25T14:06:03.056Z,8.73
2018-03-25T14:08:32.091Z,8.50
2018-03-25T14:11:00.355Z,8.50
2018-03-25T14:13:28.615Z,8.87
2018-03-25T14:15:56.896Z,7.47
2018-03-25T14:18:25.159Z,7.70
2018-03-25T14:20:53.429Z,8.25
2018-03-25T14:23:21.845Z,7.20
2018-03-25T14:25:50.087Z,9.57
2018-03-25T14:28:18.358Z,10.57
2018-03-25T14:30:46.633Z,8.50
2018-03-25T14:33:14.896Z,8.43
2018-03-25T14:35:43.937Z,8.53
2018-03-25T14:38:12.219Z,11.43
2018-03-25T14:40:40.502Z,9.37
2018-03-25T14:43:08.837Z,8.10
2018-03-25T14:45:37.228Z,9.73
2018-03-25T14:48:05.614Z,8.80
2018-03-25T14:50:33.963Z,9.57
2018-03-25T14:53:02.254Z,10.17
2018-03-25T14:55:30.517Z,11.00
2018-03-25T14:57:58.803Z,9.00
2018-03-25T15:00:27.060Z,12.37
2018-03-25T15:02:55.332Z,11.83
2018-03-25T15:05:23.713Z,11.13
2018-03-25T15:07:51.981Z,12.03
2018-03-25T15:10:21.047Z,16.63
2018-03-25T15:12:49.343Z,12.00
2018-03-25T15:15:18.396Z,12.53
2018-03-25T15:17:46.681Z,12.40
2018-03-25T15:20:14.952Z,11.70
2018-03-25T15:22:43.231Z,13.33
2018-03-25T15:25:11.513Z,12.63
2018-03-25T15:27:39.780Z,13.10
2018-03-25T15:30:08.064Z,13.20
2018-03-25T15:32:36.344Z,13.70
2018-03-25T15:35:04.625Z,13.30
2018-03-25T15:37:32.906Z,16.10
2018-03-25T15:40:01.185Z,16.03
2018-03-25T15:42:29.459Z,15.03
2018-03-25T15:44:57.736Z,19.67
2018-03-25T15:47:26.036Z,16.43
2018-03-25T15:49:55.160Z,15.50
2018-03-25T15:52:23.469Z,19.43
2018-03-25T15:54:51.785Z,15.87
2018-03-25T15:57:20.830Z,17.00
2018-03-25T15:59:49.165Z,17.17
2018-03-25T16:02:18.314Z,16.63
2018-03-25T16:04:46.662Z,18.10
2018-03-25T16:07:14.985Z,13.80
2018-03-25T16:09:43.331Z,15.90
2018-03-25T16:12:11.793Z,14.57
2018-03-25T16:14:40.102Z,14.90
2018-03-25T16:17:08.383Z,21.87
2018-03-25T16:19:36.643Z,14.03
2018-03-25T16:22:05.067Z,14.37
2018-03-25T16:24:34.198Z,14.33
2018-03-25T16:27:02.493Z,16.73
2018-03-25T16:29:31.001Z,13.50
2018-03-25T16:32:00.334Z,16.53
2018-03-25T16:34:28.875Z,15.50
2018-03-25T16:36:57.273Z,16.80
2018-03-25T16:39:26.474Z,15.30
2018-03-25T16:41:55.636Z,17.90
2018-03-25T16:44:24.021Z,15.00
2018-03-25T16:46:52.463Z,17.10
2018-03-25T16:49:21.067Z,15.63
2018-03-25T16:51:51.060Z,16.07
2018-03-25T16:54:19.770Z,15.80
2018-03-25T16:56:49.644Z,15.77
2018-03-25T16:59:20.033Z,15.43
2018-03-25T17:01:49.000Z,15.97
2018-03-25T17:04:17.371Z,15.50
2018-03-25T17:06:45.759Z,16.95
2018-03-25T17:09:14.478Z,17.60
2018-03-25T17:11:45.297Z,16.47
2018-03-25T17:14:14.903Z,14.33
2018-03-25T17:16:45.434Z,18.17
2018-03-25T17:19:15.957Z,17.67
2018-03-25T17:21:46.822Z,18.43
2018-03-25T17:24:16.518Z,19.90
2018-03-25T17:26:46.488Z,18.10
2018-03-25T17:29:17.214Z,16.83
2018-03-25T17:31:47.099Z,17.13
2018-03-25T17:34:16.811Z,19.13
2018-03-25T17:36:46.765Z,21.63
2018-03-25T17:39:17.382Z,18.70
2018-03-25T17:41:47.156Z,19.73
2018-03-25T17:44:17.100Z,19.47
2018-03-25T17:46:48.412Z,18.37
2018-03-25T17:49:18.108Z,19.13
2018-03-25T17:51:48.035Z,22.03
2018-03-25T17:54:18.001Z,22.77
2018-03-25T17:56:47.524Z,20.50
2018-03-25T17:59:18.349Z,21.93
2018-03-25T18:01:48.975Z,23.90
2018-03-25T18:04:19.627Z,20.10
2018-03-25T18:06:50.326Z,26.70
2018-03-25T18:09:20.203Z,19.63
2018-03-25T18:11:50.226Z,26.77
2018-03-25T18:14:20.011Z,22.13
2018-03-25T18:16:50.233Z,21.50
2018-03-25T18:19:19.535Z,20.80
2018-03-25T18:21:48.912Z,20.90
2018-03-25T18:24:20.832Z,22.17
2018-03-25T18:26:50.201Z,21.70
2018-03-25T18:29:19.596Z,25.30
2018-03-25T18:31:51.077Z,20.80
2018-03-25T18:34:21.263Z,22.00
2018-03-25T18:36:51.190Z,20.53
2018-03-25T18:39:21.171Z,26.17
2018-03-25T18:41:51.830Z,20.90
2018-03-25T18:44:22.542Z,21.40
2018-03-25T18:46:53.369Z,22.17
2018-03-25T18:49:24.235Z,19.43
2018-03-25T18:51:54.953Z,23.00
2018-03-25T18:54:24.545Z,20.50
2018-03-25T18:56:54.876Z,20.97
2018-03-25T18:59:24.458Z,20.83
2018-03-25T19:01:53.770Z,19.23
2018-03-25T19:04:23.080Z,21.03
2018-03-25T19:06:53.244Z,17.87
2018-03-25T19:09:22.708Z,19.47
2018-03-25T19:11:53.867Z,18.13
2018-03-25T19:14:24.494Z,19.87
2018-03-25T19:16:54.687Z,18.37
2018-03-25T19:19:24.012Z,21.17
2018-03-25T19:21:54.215Z,18.13
2018-03-25T19:24:23.719Z,24.47
2018-03-25T19:26:53.710Z,22.00
2018-03-25T19:29:23.700Z,23.23
2018-03-25T19:31:53.707Z,19.23
2018-03-25T19:34:23.955Z,20.57
2018-03-25T19:36:53.843Z,18.10
2018-03-25T19:39:23.731Z,23.10
2018-03-25T19:41:53.753Z,20.60
2018-03-25T19:44:24.480Z,22.10
2018-03-25T19:46:55.239Z,22.20
2018-03-25T19:49:25.832Z,24.17
2018-03-25T19:51:55.702Z,22.43
2018-03-25T19:54:25.611Z,23.87
2018-03-25T19:56:55.670Z,23.43
2018-03-25T19:59:25.432Z,24.60
2018-03-25T20:01:56.459Z,22.63
2018-03-25T20:04:26.479Z,23.43
2018-03-25T20:06:56.562Z,25.77
2018-03-25T20:09:29.561Z,25.70
2018-03-25T20:12:00.419Z,22.63
2018-03-25T20:14:30.970Z,22.07
2018-03-25T20:17:01.911Z,21.53
2018-03-25T20:19:31.846Z,24.57
2018-03-25T20:22:02.219Z,20.60
2018-03-25T20:24:32.825Z,20.70
2018-03-25T20:27:02.238Z,20.20
2018-03-25T20:29:31.553Z,19.57
2018-03-25T20:32:00.996Z,20.20
2018-03-25T20:34:31.384Z,21.27
2018-03-25T20:37:01.400Z,20.87
2018-03-25T20:39:31.568Z,19.83
2018-03-25T20:42:00.961Z,22.23
2018-03-25T20:44:31.208Z,20.70
2018-03-25T20:47:00.748Z,21.30
2018-03-25T20:49:31.147Z,23.13
2018-03-25T20:52:00.432Z,23.77
2018-03-25T20:54:30.836Z,20.33
2018-03-25T20:57:00.165Z,24.53
2018-03-25T20:59:29.486Z,20.83
2018-03-25T21:01:58.861Z,22.20
2018-03-25T21:04:28.346Z,21.63
2018-03-25T21:06:57.691Z,24.00
2018-03-25T21:09:27.073Z,22.23
2018-03-25T21:11:56.399Z,25.37
2018-03-25T21:14:25.769Z,20.60
2018-03-25T21:16:55.957Z,21.90
2018-03-25T21:19:25.259Z,22.47
2018-03-25T21:21:55.471Z,21.97
2018-03-25T21:24:25.491Z,25.97
2018-03-25T21:26:54.945Z,24.77
2018-03-25T21:29:24.226Z,24.97
2018-03-25T21:31:53.554Z,25.40
2018-03-25T21:34:23.275Z,23.03
2018-03-25T21:36:53.773Z,26.40
2018-03-25T21:39:24.176Z,27.27
2018-03-25T21:41:53.896Z,26.70
2018-03-25T21:44:23.651Z,29.10
2018-03-25T21:46:53.367Z,27.13
2018-03-25T21:49:23.130Z,28.50
2018-03-25T21:51:52.960Z,27.83
2018-03-25T21:54:22.926Z,25.53
2018-03-25T21:56:53.077Z,25.70
2018-03-25T21:59:22.446Z,27.60
2018-03-25T22:01:50.997Z,31.57
2018-03-25T22:04:19.286Z,25.73
2018-03-25T22:06:47.568Z,23.97
2018-03-25T22:09:15.853Z,26.97
2018-03-25T22:11:44.143Z,24.20
2018-03-25T22:14:12.421Z,24.40
2018-03-25T22:16:40.700Z,24.00
2018-03-25T22:19:08.959Z,22.93
2018-03-25T22:21:37.237Z,23.47
2018-03-25T22:24:05.508Z,24.43
2018-03-25T22:26:33.764Z,24.95
2018-03-25T22:29:02.787Z,22.43
2018-03-25T22:31:31.062Z,23.73
2018-03-25T22:33:59.320Z,21.80
2018-03-25T22:36:27.577Z,20.90
2018-03-25T22:38:56.625Z,22.00
2018-03-25T22:41:24.889Z,20.30
2018-03-25T22:43:53.164Z,22.83
2018-03-25T22:46:21.430Z,26.90
2018-03-25T22:48:49.695Z,22.77
2018-03-25T22:51:17.971Z,25.27
2018-03-25T22:53:46.231Z,24.50
2018-03-25T22:56:15.292Z,24.67
2018-03-25T22:58:43.547Z,23.40
2018-03-25T23:01:11.834Z,25.47
2018-03-25T23:03:40.084Z,26.13
2018-03-25T23:06:08.373Z,23.57
2018-03-25T23:08:36.640Z,24.00
2018-03-25T23:11:04.900Z,25.00
2018-03-25T23:13:33.172Z,23.77
2018-03-25T23:16:01.447Z,31.03
2018-03-25T23:18:29.717Z,28.03
2018-03-25T23:20:58.003Z,29.97
2018-03-25T23:23:26.256Z,25.27
2018-03-25T23:25:55.296Z,29.07
2018-03-25T23:28:23.560Z,30.03
2018-03-25T23:30:51.840Z,23.23
2018-03-25T23:33:20.116Z,29.93
2018-03-25T23:35:48.381Z,24.57
2018-03-25T23:38:16.647Z,23.37
2018-03-25T23:40:44.915Z,28.50
2018-03-25T23:43:13.939Z,32.93
2018-03-25T23:45:42.195Z,25.43
2018-03-25T23:48:10.475Z,26.37
2018-03-25T23:50:38.729Z,29.23
2018-03-25T23:53:07.777Z,28.83
2018-03-25T23:55:36.032Z,27.60
2018-03-25T23:58:04.293Z,30.50
